Time;durP1;ratioP1;P1;durP2;ratioP2;P2;SDS_P1;SDS_P2;PMS_P1;PMS_P2;Temp;Humidity;BMP_temperature;BMP_pressure;BME280_temperature;BME280_humidity;BME280_pressure;Samples;Min_cycle;Max_cycle;Signal;HPM_P1;HPM_P2
2023/11/19 00:01:25;;;;;;;4.63;4.43;;;;;;;10.23;100.00;100537.03;6016216;23;20011;-74
2023/11/19 00:03:51;;;;;;;4.53;4.32;;;;;;;11.01;100.00;100650.06;6021876;23;20134;-72
2023/11/19 00:06:18;;;;;;;4.43;4.22;;;;;;;10.58;100.00;100557.91;6022739;23;20022;-74
2023/11/19 00:08:44;;;;;;;8.20;4.60;;;;;;;11.05;100.00;100619.25;6023818;23;20594;-73
2023/11/19 00:11:11;;;;;;;4.20;4.00;;;;;;;10.56;100.00;100523.91;5967341;23;20031;-72
2023/11/19 00:13:40;;;;;;;4.50;4.30;;;;;;;11.02;100.00;100587.88;6024954;23;20030;-73
2023/11/19 00:16:09;;;;;;;4.53;4.32;;;;;;;10.77;100.00;100612.88;5993636;23;20098;-74
2023/11/19 00:18:36;;;;;;;5.72;5.43;;;;;;;11.11;100.00;100639.91;6020244;23;20021;-73
2023/11/19 00:21:02;;;;;;;4.63;4.30;;;;;;;11.19;100.00;100635.09;6017098;23;20020;-74
2023/11/19 00:23:29;;;;;;;4.60;4.40;;;;;;;11.06;100.00;100618.31;5993078;23;20017;-74
2023/11/19 00:25:55;;;;;;;4.70;4.50;;;;;;;11.02;100.00;100593.97;6023245;23;20085;-74
2023/11/19 00:28:22;;;;;;;4.80;4.60;;;;;;;11.22;100.00;100623.56;6019940;23;20013;-74
2023/11/19 00:30:49;;;;;;;4.45;4.25;;;;;;;11.15;100.00;100621.28;6009724;23;20031;-73
2023/11/19 00:33:15;;;;;;;4.47;4.20;;;;;;;11.17;100.00;100624.66;6020362;23;20122;-72
2023/11/19 00:35:42;;;;;;;4.43;4.22;;;;;;;11.17;100.00;100623.81;5989052;23;20065;-73
2023/11/19 00:38:08;;;;;;;4.50;4.30;;;;;;;9.91;100.00;100432.09;6021418;23;20528;-73
2023/11/19 00:40:34;;;;;;;6.32;5.85;;;;;;;10.84;100.00;100545.13;6015331;23;20654;-72
2023/11/19 00:43:01;;;;;;;5.40;4.72;;;;;;;11.11;100.00;100593.47;6017768;23;20101;-73
2023/11/19 00:45:28;;;;;;;4.30;4.10;;;;;;;11.30;100.00;100619.53;6023021;23;20028;-73
2023/11/19 00:47:54;;;;;;;4.95;4.65;;;;;;;11.35;100.00;100628.03;6018362;23;20542;-73
2023/11/19 00:50:21;;;;;;;4.85;4.65;;;;;;;11.47;100.00;100636.16;6015620;23;20038;-74
2023/11/19 00:52:47;;;;;;;4.43;4.22;;;;;;;11.44;100.00;100612.66;6015071;23;20579;-73
2023/11/19 00:55:14;;;;;;;4.35;4.15;;;;;;;11.17;100.00;100551.09;6019799;23;20027;-73
2023/11/19 00:57:40;;;;;;;4.55;4.35;;;;;;;10.97;100.00;100512.84;6023447;23;20029;-73
2023/11/19 01:00:15;;;;;;;4.50;4.30;;;;;;;11.34;100.00;100565.06;6018465;23;20570;-73
2023/11/19 01:02:41;;;;;;;4.40;4.20;;;;;;;10.92;100.00;100490.41;6020624;23;20368;-73
2023/11/19 01:05:08;;;;;;;4.40;4.20;;;;;;;11.28;100.00;100531.25;5994520;23;20092;-73
2023/11/19 01:07:35;;;;;;;4.70;4.50;;;;;;;11.77;100.00;100589.69;6020370;23;20026;-75
2023/11/19 01:10:02;;;;;;;4.47;4.28;;;;;;;11.35;100.00;100487.94;6022381;23;20030;-75
2023/11/19 01:12:31;;;;;;;5.57;5.38;;;;;;;11.31;100.00;100499.56;6016984;23;20033;-74
2023/11/19 01:14:57;;;;;;;4.60;4.40;;;;;;;11.80;100.00;100558.91;6002557;23;20107;-72
2023/11/19 01:17:24;;;;;;;4.35;4.15;;;;;;;11.69;100.00;100546.41;6021953;23;20073;-73
2023/11/19 01:19:50;;;;;;;4.47;4.28;;;;;;;11.89;100.00;100559.22;6023804;23;20037;-74
2023/11/19 01:22:18;;;;;;;4.53;4.32;;;;;;;12.03;100.00;100549.63;5975438;23;20026;-73
2023/11/19 01:24:45;;;;;;;4.30;4.10;;;;;;;11.86;100.00;100524.34;6005087;23;20091;-73
2023/11/19 01:27:11;;;;;;;5.05;4.65;;;;;;;11.86;100.00;100525.19;6018341;23;20029;-73
2023/11/19 01:29:38;;;;;;;4.60;4.40;;;;;;;12.00;100.00;100540.16;6002734;23;20055;-73
2023/11/19 01:32:04;;;;;;;5.70;5.05;;;;;;;12.04;100.00;100536.41;6023586;23;20030;-72
2023/11/19 01:34:31;;;;;;;5.97;5.68;;;;;;;11.24;100.00;100401.03;6022224;23;20135;-74
2023/11/19 01:36:57;;;;;;;5.45;5.15;;;;;;;12.08;100.00;100534.44;6008148;23;20108;-75
2023/11/19 01:39:24;;;;;;;4.55;4.35;;;;;;;12.06;100.00;100533.69;6007211;23;20040;-75
2023/11/19 01:41:50;;;;;;;4.80;4.60;;;;;;;11.53;100.00;100457.94;6022187;23;20036;-73
2023/11/19 01:44:17;;;;;;;4.50;4.30;;;;;;;11.76;100.00;100474.09;5999979;23;20442;-75
2023/11/19 01:46:49;;;;;;;4.50;4.30;;;;;;;11.62;100.00;100455.69;5999079;23;20027;-73
2023/11/19 01:49:17;;;;;;;4.70;4.40;;;;;;;12.11;100.00;100518.47;5995823;23;20037;-74
2023/11/19 01:51:47;;;;;;;4.22;4.03;;;;;;;11.52;100.00;100422.06;6026554;23;20120;-74
2023/11/19 01:54:15;;;;;;;4.25;4.05;;;;;;;11.95;100.00;100482.59;6002975;23;20090;-73
2023/11/19 01:56:42;;;;;;;4.30;4.10;;;;;;;12.03;100.00;100497.03;6025054;23;20122;-73
2023/11/19 01:59:11;;;;;;;4.40;4.20;;;;;;;12.04;100.00;100502.22;6001520;23;20000;-73
2023/11/19 02:01:39;;;;;;;4.85;4.65;;;;;;;12.19;100.00;100508.31;6026842;23;20034;-73
2023/11/19 02:04:07;;;;;;;5.13;4.80;;;;;;;11.77;100.00;100445.09;6026836;23;20038;-73
2023/11/19 02:06:40;;;;;;;5.88;5.57;;;;;;;12.05;100.00;100461.00;6017432;23;20371;-73
2023/11/19 02:09:07;;;;;;;4.80;4.60;;;;;;;11.97;100.00;100448.31;5999159;23;20051;-70
2023/11/19 02:11:34;;;;;;;4.85;4.65;;;;;;;12.00;100.00;100439.38;6022595;23;20039;-70
2023/11/19 02:14:03;;;;;;;4.57;4.38;;;;;;;11.65;100.00;100364.34;6002917;23;20011;-70
2023/11/19 02:16:29;;;;;;;7.03;6.57;;;;;;;11.96;100.00;100412.41;6008778;23;20089;-71
2023/11/19 02:18:56;;;;;;;5.80;5.35;;;;;;;12.26;100.00;100459.63;5990047;23;20450;-70
2023/11/19 02:21:22;;;;;;;4.63;4.43;;;;;;;12.29;100.00;100456.81;6024386;23;20038;-70
2023/11/19 02:23:49;;;;;;;5.32;4.93;;;;;;;12.01;100.00;100423.50;5993001;23;20473;-70
2023/11/19 02:26:33;;;;;;;4.63;4.43;;;;;;;11.93;100.00;100376.66;6028160;23;20080;-70
2023/11/19 02:29:00;;;;;;;5.07;4.88;;;;;;;11.77;100.00;100365.38;6019194;23;20047;-70
2023/11/19 02:31:27;;;;;;;9.07;4.82;;;;;;;11.97;100.00;100382.56;6004852;23;20082;-70
2023/11/19 02:33:54;;;;;;;4.88;4.68;;;;;;;12.34;100.00;100431.03;6003191;23;20112;-71
2023/11/19 02:36:22;;;;;;;5.05;4.75;;;;;;;12.13;100.00;100395.59;5993843;23;20096;-69
2023/11/19 02:38:48;;;;;;;4.88;4.63;;;;;;;12.00;100.00;100386.78;5999798;23;20027;-70
2023/11/19 02:41:14;;;;;;;4.50;4.30;;;;;;;12.06;100.00;100403.00;6019489;23;20059;-70
2023/11/19 02:43:41;;;;;;;4.72;4.53;;;;;;;11.78;100.00;100353.91;6001499;23;20075;-69
2023/11/19 02:46:08;;;;;;;5.13;4.82;;;;;;;12.09;100.00;100421.25;5997536;23;20035;-70
2023/11/19 02:48:37;;;;;;;5.78;5.38;;;;;;;12.03;100.00;100405.84;5998566;23;20034;-70
2023/11/19 02:51:04;;;;;;;5.45;5.15;;;;;;;11.50;100.00;100329.34;6024127;23;20123;-70
2023/11/19 02:53:31;;;;;;;4.70;4.45;;;;;;;11.41;100.00;100321.19;6016811;23;20074;-70
2023/11/19 02:56:06;;;;;;;5.60;5.20;;;;;;;12.00;100.00;100392.88;5995901;23;20031;-71
2023/11/19 02:58:34;;;;;;;6.00;5.65;;;;;;;12.17;100.00;100405.81;6019061;23;20031;-70
2023/11/19 03:01:09;;;;;;;4.97;4.72;;;;;;;11.78;100.00;100367.06;6024660;23;20357;-71
2023/11/19 03:03:40;;;;;;;4.97;4.60;;;;;;;12.15;100.00;100394.53;5996412;23;20034;-70
2023/11/19 03:06:09;;;;;;;4.90;4.70;;;;;;;11.81;100.00;100343.22;6023377;23;20426;-71
2023/11/19 03:08:36;;;;;;;6.45;6.15;;;;;;;12.13;100.00;100378.00;5978012;23;20026;-70
2023/11/19 03:11:03;;;;;;;5.13;4.90;;;;;;;11.65;100.00;100306.53;5994058;23;20050;-72
2023/11/19 03:13:29;;;;;;;7.65;5.05;;;;;;;7.81;100.00;99690.94;6025456;23;20886;-71
2023/11/19 03:15:55;;;;;;;5.03;4.80;;;;;;;11.72;100.00;100268.38;5998346;23;20023;-70
2023/11/19 03:18:22;;;;;;;5.78;5.28;;;;;;;12.13;100.00;100332.47;6019830;23;20046;-70
2023/11/19 03:20:49;;;;;;;7.35;4.32;;;;;;;12.34;100.00;100328.41;6024671;23;20030;-74
2023/11/19 03:23:16;;;;;;;4.90;4.70;;;;;;;12.27;100.00;100300.84;6020781;23;20021;-74
2023/11/19 03:25:43;;;;;;;4.82;4.53;;;;;;;12.29;100.00;100306.84;5997038;23;20044;-73
2023/11/19 03:28:10;;;;;;;7.57;4.82;;;;;;;12.08;100.00;100266.16;6020020;23;20066;-73
2023/11/19 03:30:38;;;;;;;5.88;5.45;;;;;;;12.37;100.00;100311.59;6021455;23;20031;-73
2023/11/19 03:33:04;;;;;;;4.70;4.50;;;;;;;11.87;100.00;100215.78;5996455;23;20608;-73
2023/11/19 03:35:31;;;;;;;9.25;4.57;;;;;;;12.41;100.00;100301.69;6021561;23;20030;-74
2023/11/19 03:37:57;;;;;;;4.60;4.40;;;;;;;12.38;100.00;100285.16;5993485;23;20031;-73
2023/11/19 03:40:25;;;;;;;6.32;5.88;;;;;;;12.45;100.00;100284.75;6018960;23;20713;-73
2023/11/19 03:42:51;;;;;;;4.72;4.53;;;;;;;12.32;100.00;100282.94;5995263;23;20210;-75
2023/11/19 03:45:18;;;;;;;7.78;5.05;;;;;;;11.88;100.00;100178.84;6019311;23;20031;-73
2023/11/19 03:47:44;;;;;;;5.18;4.80;;;;;;;12.40;100.00;100231.59;6023710;23;20105;-72
2023/11/19 03:50:10;;;;;;;8.20;4.97;;;;;;;12.06;100.00;100157.56;5995033;23;20026;-72
2023/11/19 03:52:37;;;;;;;6.47;6.07;;;;;;;12.24;100.00;100143.16;5995268;23;20114;-72
2023/11/19 03:55:08;;;;;;;5.82;4.90;;;;;;;12.18;100.00;100126.00;6021399;23;20547;-73
2023/11/19 03:57:35;;;;;;;8.95;5.38;;;;;;;12.60;100.00;100186.34;5981533;23;20085;-73
2023/11/19 04:00:09;;;;;;;6.28;5.78;;;;;;;11.93;100.00;100102.34;5991686;23;20435;-72
2023/11/19 04:02:36;;;;;;;5.82;5.53;;;;;;;12.18;100.00;100165.47;6009270;23;20086;-72
2023/11/19 04:05:04;;;;;;;6.05;5.25;;;;;;;12.02;100.00;100156.09;6017861;23;20057;-73
2023/11/19 04:07:31;;;;;;;8.55;5.15;;;;;;;12.18;100.00;100206.72;6002704;23;20038;-74
2023/11/19 04:09:58;;;;;;;5.43;5.00;;;;;;;12.06;100.00;100207.53;6022372;23;20409;-74
2023/11/19 04:12:27;;;;;;;6.72;6.32;;;;;;;11.53;100.00;100160.97;6021618;23;20030;-73
2023/11/19 04:14:53;;;;;;;5.15;4.63;;;;;;;11.39;100.00;100155.78;6000254;23;20078;-74
2023/11/19 04:17:23;;;;;;;10.52;4.60;;;;;;;11.74;100.00;100228.84;6021401;23;20027;-73
2023/11/19 04:19:49;;;;;;;5.28;4.80;;;;;;;11.44;100.00;100198.34;5999380;23;20023;-74
2023/11/19 04:22:16;;;;;;;6.00;4.97;;;;;;;11.66;100.00;100263.50;5994420;23;20132;-73
2023/11/19 04:24:45;;;;;;;4.80;4.55;;;;;;;11.44;100.00;100227.25;6018856;23;20086;-73
2023/11/19 04:27:12;;;;;;;4.70;4.50;;;;;;;11.56;100.00;100249.28;6021112;23;20119;-72
2023/11/19 04:29:38;;;;;;;5.70;5.22;;;;;;;11.36;100.00;100221.63;6021222;23;20015;-72
2023/11/19 04:32:05;;;;;;;17.65;4.88;;;;;;;11.47;100.00;100237.56;5994635;23;20509;-71
2023/11/19 04:34:31;;;;;;;6.38;6.03;;;;;;;11.78;100.00;100289.00;6016543;23;20077;-73
2023/11/19 04:37:01;;;;;;;4.75;4.55;;;;;;;11.78;100.00;100278.50;5992734;23;20070;-74
2023/11/19 04:39:39;;;;;;;4.60;4.40;;;;;;;11.87;100.00;100290.22;5998158;23;20197;-73
2023/11/19 04:42:06;;;;;;;5.78;5.38;;;;;;;11.21;100.00;100172.72;6020005;23;20031;-73
2023/11/19 04:44:33;;;;;;;6.45;6.15;;;;;;;11.88;100.00;100270.88;6022897;23;20019;-73
2023/11/19 04:46:59;;;;;;;5.53;4.93;;;;;;;11.54;100.00;100217.81;5994954;23;20677;-73
2023/11/19 04:49:26;;;;;;;4.97;4.68;;;;;;;11.49;100.00;100196.28;6026774;23;20007;-73
2023/11/19 04:51:53;;;;;;;6.65;4.60;;;;;;;11.42;100.00;100175.75;6032898;23;20104;-73
2023/11/19 04:54:20;;;;;;;5.57;5.07;;;;;;;11.46;100.00;100179.84;6022300;23;20090;-74
2023/11/19 04:56:47;;;;;;;4.85;4.45;;;;;;;11.16;100.00;100131.81;6026292;23;20025;-73
2023/11/19 04:59:13;;;;;;;8.55;4.70;;;;;;;11.76;100.00;100211.19;5990281;23;20019;-74
2023/11/19 05:01:40;;;;;;;6.50;4.75;;;;;;;11.48;100.00;100173.56;6005078;23;20033;-73
2023/11/19 05:04:07;;;;;;;5.68;5.15;;;;;;;11.42;100.00;100167.84;6028215;23;20076;-73
2023/11/19 05:06:35;;;;;;;6.35;5.95;;;;;;;11.30;100.00;100143.22;5968375;23;20592;-74
2023/11/19 05:09:03;;;;;;;6.22;4.88;;;;;;;11.85;100.00;100218.50;6027843;23;20106;-72
2023/11/19 05:11:32;;;;;;;5.05;4.65;;;;;;;11.86;100.00;100198.31;5997178;23;20098;-73
2023/11/19 05:13:59;;;;;;;5.60;4.85;;;;;;;11.03;100.00;100088.91;6027769;23;20026;-73
2023/11/19 05:16:25;;;;;;;6.50;6.00;;;;;;;11.76;100.00;100214.66;5994874;23;20579;-74
2023/11/19 05:18:51;;;;;;;22.67;5.20;;;;;;;11.72;100.00;100217.59;6026819;23;20035;-72
2023/11/19 05:21:18;;;;;;;5.15;4.75;;;;;;;11.40;100.00;100141.69;6024265;23;20039;-72
2023/11/19 05:23:44;;;;;;;5.00;4.72;;;;;;;11.98;100.00;100190.47;6023502;23;20037;-73
2023/11/19 05:26:18;;;;;;;6.28;4.88;;;;;;;11.81;100.00;100148.66;5995151;23;20027;-73
2023/11/19 05:28:45;;;;;;;8.20;4.95;;;;;;;11.10;100.00;100023.69;6022290;23;20034;-73
2023/11/19 05:31:11;;;;;;;6.88;4.93;;;;;;;11.25;100.00;100051.59;5995434;23;20050;-73
2023/11/19 05:33:37;;;;;;;5.05;4.75;;;;;;;11.07;100.00;100045.75;6028635;23;20955;-73
2023/11/19 05:36:05;;;;;;;5.15;4.65;;;;;;;11.59;100.00;100141.34;5995411;23;20038;-73
2023/11/19 05:38:31;;;;;;;6.55;6.18;;;;;;;11.40;100.00;100125.91;6033530;23;20066;-73
2023/11/19 05:40:58;;;;;;;6.20;4.80;;;;;;;11.34;100.00;100111.38;6022856;23;20021;-73
2023/11/19 05:43:24;;;;;;;6.30;5.75;;;;;;;10.87;100.00;100033.91;6028099;23;20091;-73
2023/11/19 05:45:51;;;;;;;8.82;4.35;;;;;;;10.28;100.00;99941.41;6003236;23;20038;-72
2023/11/19 05:48:20;;;;;;;10.50;6.07;;;;;;;10.13;100.00;99932.75;5993581;23;20034;-73
2023/11/19 05:50:49;;;;;;;7.35;4.75;;;;;;;11.57;100.00;100154.56;6000284;23;20093;-73
2023/11/19 05:53:16;;;;;;;5.53;5.13;;;;;;;11.70;100.00;100151.13;6018842;23;20756;-74
2023/11/19 05:55:54;;;;;;;7.93;4.80;;;;;;;11.67;100.00;100132.97;5983550;23;20062;-73
2023/11/19 05:58:26;;;;;;;5.45;5.00;;;;;;;11.63;100.00;100121.81;6019107;23;20031;-74
2023/11/19 06:00:52;;;;;;;6.68;4.22;;;;;;;11.69;100.00;100118.75;6005125;23;20090;-74
2023/11/19 06:03:19;;;;;;;5.80;5.30;;;;;;;11.22;100.00;100016.78;6026430;23;20740;-72
2023/11/19 06:05:46;;;;;;;5.07;4.43;;;;;;;10.30;100.00;99876.63;6027337;23;20364;-73
2023/11/19 06:08:14;;;;;;;5.93;5.53;;;;;;;11.32;100.00;100046.75;5979209;23;20509;-73
2023/11/19 06:10:41;;;;;;;5.20;4.85;;;;;;;10.83;100.00;99958.91;6019559;23;20085;-73
2023/11/19 06:13:10;;;;;;;9.63;5.43;;;;;;;11.61;100.00;100084.25;5994715;23;20057;-73
2023/11/19 06:15:36;;;;;;;12.55;5.00;;;;;;;11.08;100.00;100008.03;6027333;23;20026;-73
2023/11/19 06:18:03;;;;;;;5.25;4.90;;;;;;;11.67;100.00;100090.91;5991054;23;20027;-74
2023/11/19 06:20:31;;;;;;;6.15;5.78;;;;;;;11.47;100.00;100079.91;6024874;23;20026;-73
2023/11/19 06:23:09;;;;;;;8.60;5.57;;;;;;;11.45;100.00;100089.69;5989424;23;20038;-73
2023/11/19 06:25:35;;;;;;;4.47;4.28;;;;;;;10.92;100.00;100021.31;6027070;23;20090;-73
2023/11/19 06:28:02;;;;;;;6.43;5.80;;;;;;;11.46;100.00;100136.03;6021185;23;20039;-73
2023/11/19 06:30:31;;;;;;;6.45;6.05;;;;;;;10.81;100.00;100002.78;5998169;23;20022;-72
2023/11/19 06:32:57;;;;;;;12.35;5.55;;;;;;;11.31;100.00;100132.63;6026172;23;20854;-73
2023/11/19 06:35:24;;;;;;;10.05;5.25;;;;;;;10.81;100.00;100059.72;6025696;23;20030;-72
2023/11/19 06:37:50;;;;;;;4.43;4.22;;;;;;;10.89;100.00;100078.44;6026919;23;20086;-73
2023/11/19 06:40:16;;;;;;;7.70;4.97;;;;;;;11.21;100.00;100126.28;6027300;23;20574;-72
2023/11/19 06:42:43;;;;;;;5.18;4.88;;;;;;;10.07;100.00;99917.41;6019931;23;20527;-71
2023/11/19 06:45:09;;;;;;;5.70;4.80;;;;;;;10.63;100.00;100015.31;6025573;23;20029;-72
2023/11/19 06:47:36;;;;;;;5.90;5.38;;;;;;;11.21;100.00;100109.69;6018460;23;20102;-72
2023/11/19 06:50:05;;;;;;;4.50;4.30;;;;;;;11.27;100.00;100099.59;5997753;23;20097;-73
2023/11/19 06:52:32;;;;;;;12.30;7.00;;;;;;;11.28;100.00;100079.44;5990399;23;20043;-73
2023/11/19 06:54:58;;;;;;;4.53;4.32;;;;;;;11.21;100.00;100062.41;6026733;23;20026;-73
2023/11/19 06:57:29;;;;;;;9.95;4.55;;;;;;;11.27;100.00;100060.22;6001180;23;20019;-73
2023/11/19 06:59:55;;;;;;;8.50;5.70;;;;;;;10.32;100.00;99887.88;6015199;23;20011;-71
2023/11/19 07:02:22;;;;;;;6.07;5.70;;;;;;;11.20;100.00;100005.53;5963456;23;20086;-72
2023/11/19 07:04:52;;;;;;;12.77;5.97;;;;;;;10.98;100.00;99941.31;6022640;23;20026;-71
2023/11/19 07:07:18;;;;;;;4.97;4.75;;;;;;;11.03;100.00;99973.38;6020557;23;20038;-71
2023/11/19 07:09:44;;;;;;;4.97;4.63;;;;;;;10.91;100.00;99997.78;5995489;23;20030;-71
2023/11/19 07:12:13;;;;;;;4.93;4.68;;;;;;;10.45;100.00;99948.28;6019089;23;20081;-72
2023/11/19 07:14:41;;;;;;;8.43;5.53;;;;;;;11.26;100.00;100058.50;6018477;23;20542;-71
2023/11/19 07:17:10;;;;;;;4.60;4.32;;;;;;;11.11;100.00;100005.22;5999983;23;20637;-71
2023/11/19 07:19:38;;;;;;;5.78;4.32;;;;;;;11.42;100.00;100028.59;6023491;23;20089;-71
2023/11/19 07:22:06;;;;;;;6.38;5.72;;;;;;;11.41;100.00;100000.66;6022081;23;20018;-71
2023/11/19 07:24:32;;;;;;;8.20;6.20;;;;;;;11.28;100.00;99975.19;5989502;23;20038;-71
2023/11/19 07:26:59;;;;;;;13.98;4.70;;;;;;;10.65;100.00;99903.22;6004454;23;20042;-71
2023/11/19 07:29:25;;;;;;;4.88;4.25;;;;;;;10.78;100.00;99937.38;5993073;23;20023;-71
2023/11/19 07:31:56;;;;;;;5.35;4.70;;;;;;;10.85;100.00;99957.03;6027934;23;20027;-70
2023/11/19 07:34:24;;;;;;;8.50;6.00;;;;;;;11.06;100.00;99996.78;5990367;23;20027;-71
2023/11/19 07:36:51;;;;;;;4.35;4.15;;;;;;;10.86;100.00;99989.38;6025319;23;20035;-71
2023/11/19 07:39:17;;;;;;;6.30;5.75;;;;;;;11.39;100.00;100048.06;5996569;23;20019;-71
2023/11/19 07:41:44;;;;;;;9.68;5.65;;;;;;;11.46;100.00;100043.22;6020936;23;20094;-71
2023/11/19 07:44:11;;;;;;;10.98;4.72;;;;;;;11.30;100.00;100015.34;5997224;23;20041;-71
2023/11/19 07:46:37;;;;;;;11.18;5.63;;;;;;;11.42;100.00;100029.44;6019941;23;20061;-71
2023/11/19 07:49:04;;;;;;;4.80;4.60;;;;;;;11.46;100.00;100024.84;6021549;23;20469;-72
2023/11/19 07:51:30;;;;;;;6.00;5.65;;;;;;;11.01;100.00;99988.38;5991648;23;20042;-71
2023/11/19 07:53:56;;;;;;;4.50;4.30;;;;;;;11.37;100.00;100053.41;6018651;23;20523;-71
2023/11/19 07:56:23;;;;;;;7.20;6.18;;;;;;;10.98;100.00;99999.94;5970898;23;20023;-71
2023/11/19 07:58:49;;;;;;;17.15;6.22;;;;;;;11.21;100.00;100042.22;6017185;23;20657;-70
2023/11/19 08:01:16;;;;;;;7.13;5.28;;;;;;;11.07;100.00;99993.22;6022224;23;20034;-71
2023/11/19 08:03:42;;;;;;;5.93;5.40;;;;;;;11.15;100.00;100005.84;6021481;23;20124;-70
2023/11/19 08:06:24;;;;;;;6.28;5.75;;;;;;;11.45;100.00;100024.00;5989661;23;20027;-71
2023/11/19 08:08:51;;;;;;;4.80;4.50;;;;;;;10.33;100.00;99858.94;6022908;23;20018;-71
2023/11/19 08:11:19;;;;;;;4.60;4.30;;;;;;;11.53;100.00;100073.41;6014180;23;20042;-69
2023/11/19 08:13:46;;;;;;;4.68;4.38;;;;;;;11.59;100.00;100091.41;6024773;23;20018;-69
2023/11/19 08:16:12;;;;;;;10.80;5.00;;;;;;;11.13;100.00;100021.72;5995178;23;20560;-70
2023/11/19 08:18:43;;;;;;;5.43;4.70;;;;;;;11.09;100.00;100017.59;5992886;23;20030;-70
2023/11/19 08:21:10;;;;;;;4.80;4.60;;;;;;;10.70;100.00;99982.47;5996083;23;20046;-69
2023/11/19 08:23:37;;;;;;;8.05;4.85;;;;;;;11.57;100.00;100098.56;6021812;23;20026;-69
2023/11/19 08:26:04;;;;;;;6.57;4.63;;;;;;;11.44;100.00;100061.72;6023583;23;20034;-70
2023/11/19 08:28:31;;;;;;;8.02;6.40;;;;;;;11.82;100.00;100091.66;6021209;23;20026;-71
2023/11/19 08:30:58;;;;;;;6.93;4.55;;;;;;;11.58;100.00;100035.34;5999449;23;20031;-69
2023/11/19 08:33:26;;;;;;;9.43;4.82;;;;;;;11.67;100.00;100062.81;6024810;23;20007;-70
2023/11/19 08:35:52;;;;;;;14.75;5.28;;;;;;;11.88;100.00;100089.44;6025182;23;20089;-70
2023/11/19 08:38:19;;;;;;;12.82;5.78;;;;;;;11.95;100.00;100076.78;5992741;23;20484;-72
2023/11/19 08:40:48;;;;;;;5.28;4.78;;;;;;;11.98;100.00;100071.28;6022494;23;20098;-69
2023/11/19 08:43:15;;;;;;;6.18;5.10;;;;;;;11.86;100.00;100043.19;6028006;23;20038;-70
2023/11/19 08:45:42;;;;;;;5.90;5.32;;;;;;;11.76;100.00;100011.41;6027142;23;20033;-70
2023/11/19 08:48:09;;;;;;;5.07;4.78;;;;;;;11.84;100.00;100013.53;6019486;23;20038;-69
2023/11/19 08:50:35;;;;;;;7.40;6.50;;;;;;;11.52;100.00;99943.78;6000651;23;20018;-69
2023/11/19 08:53:02;;;;;;;6.05;5.18;;;;;;;11.84;100.00;99982.81;6023488;23;20029;-70
2023/11/19 08:55:28;;;;;;;11.55;5.32;;;;;;;12.17;100.00;100021.75;6007602;23;20034;-69
2023/11/19 08:57:55;;;;;;;6.75;5.13;;;;;;;12.06;100.00;100005.03;6025385;23;20023;-69
2023/11/19 09:00:21;;;;;;;9.27;5.72;;;;;;;11.82;100.00;99981.25;6014946;23;20345;-71
2023/11/19 09:02:47;;;;;;;11.05;5.00;;;;;;;11.83;100.00;99957.47;6000816;23;20532;-69
2023/11/19 09:05:14;;;;;;;5.93;4.70;;;;;;;12.09;100.00;100025.88;5991803;23;20102;-70
2023/11/19 09:07:41;;;;;;;7.72;4.85;;;;;;;12.14;100.00;100031.63;6022918;23;20019;-70
2023/11/19 09:10:08;;;;;;;5.45;4.90;;;;;;;10.98;100.00;99834.53;5998737;23;20091;-70
2023/11/19 09:12:35;;;;;;;7.10;6.50;;;;;;;11.68;100.00;99930.44;6020305;23;20043;-70
2023/11/19 09:15:01;;;;;;;7.65;5.07;;;;;;;11.76;100.00;99938.63;5999317;23;20027;-71
2023/11/19 09:17:28;;;;;;;5.60;5.05;;;;;;;12.16;100.00;99974.50;6020789;23;20023;-71
2023/11/19 09:19:54;;;;;;;8.90;4.90;;;;;;;12.21;100.00;99990.81;6019851;23;20035;-71
2023/11/19 09:22:21;;;;;;;5.28;4.90;;;;;;;12.32;100.00;99998.78;6020146;23;20366;-69
2023/11/19 09:24:48;;;;;;;5.72;5.13;;;;;;;12.36;100.00;99963.41;5997928;23;20046;-70
2023/11/19 09:27:14;;;;;;;4.93;4.63;;;;;;;11.97;100.00;99899.53;5997481;23;20081;-70
2023/11/19 09:29:41;;;;;;;11.88;5.32;;;;;;;12.50;100.00;99940.53;6017096;23;20050;-70
2023/11/19 09:32:07;;;;;;;6.30;5.28;;;;;;;11.91;100.00;99836.88;6027575;23;20074;-69
2023/11/19 09:34:34;;;;;;;6.97;6.07;;;;;;;12.53;100.00;99950.84;5988128;23;20019;-69
2023/11/19 09:37:01;;;;;;;5.35;4.47;;;;;;;12.55;100.00;99975.25;6028945;23;20027;-69
2023/11/19 09:39:27;;;;;;;6.28;5.80;;;;;;;12.17;100.00;99884.97;5997067;23;20035;-70
2023/11/19 09:41:54;;;;;;;10.10;4.55;;;;;;;12.34;100.00;99915.31;6002491;23;20221;-69
2023/11/19 09:44:20;;;;;;;5.43;5.07;;;;;;;12.47;100.00;99954.75;5998708;23;20037;-70
2023/11/19 09:46:48;;;;;;;4.80;4.50;;;;;;;12.48;100.00;99916.09;6023432;23;20026;-76
2023/11/19 09:49:21;;;;;;;6.20;5.35;;;;;;;12.12;100.00;99847.63;6014516;23;21390;-73
2023/11/19 09:52:02;;;;;;;6.13;4.80;;;;;;;12.57;100.00;99923.34;5993627;23;20027;-72
2023/11/19 09:54:29;;;;;;;10.90;6.20;;;;;;;12.65;100.00;99933.28;6014912;23;20038;-72
2023/11/19 09:57:02;;;;;;;5.40;4.90;;;;;;;12.48;100.00;99924.84;6004320;23;20023;-71
2023/11/19 09:59:32;;;;;;;5.40;4.90;;;;;;;12.89;100.00;99941.19;6019001;23;20034;-72
2023/11/19 10:01:59;;;;;;;6.13;4.88;;;;;;;12.56;100.00;99854.06;5997659;23;20106;-72
2023/11/19 10:04:30;;;;;;;7.18;6.80;;;;;;;12.89;100.00;99875.34;6017899;23;20026;-71
2023/11/19 10:06:57;;;;;;;5.15;4.82;;;;;;;13.33;100.00;99889.59;6029379;23;20043;-71
2023/11/19 10:09:23;;;;;;;6.45;4.85;;;;;;;13.11;100.00;99845.56;6008042;23;20109;-71
2023/11/19 10:11:50;;;;;;;5.30;4.88;;;;;;;13.54;100.00;99887.13;6019965;23;20035;-71
2023/11/19 10:14:22;;;;;;;6.97;5.47;;;;;;;13.20;100.00;99802.72;6024405;23;20030;-72
2023/11/19 10:16:49;;;;;;;11.55;5.28;;;;;;;13.42;100.00;99865.19;6019991;23;20026;-71
2023/11/19 10:19:22;;;;;;;5.80;4.88;;;;;;;13.61;100.00;99859.34;6004795;23;20023;-73
2023/11/19 10:21:49;;;;;;;17.15;5.88;;;;;;;13.53;100.00;99873.09;6021823;23;20046;-70
2023/11/19 10:24:15;;;;;;;6.05;5.65;;;;;;;13.58;100.00;99891.19;5996755;23;20022;-72
2023/11/19 10:26:45;;;;;;;5.95;5.40;;;;;;;13.40;100.00;99859.19;6018472;23;20137;-73
2023/11/19 10:29:14;;;;;;;5.65;4.88;;;;;;;13.53;100.00;99852.03;5997194;23;20034;-72
2023/11/19 10:31:41;;;;;;;6.45;5.10;;;;;;;13.62;100.00;99883.91;6004466;23;20042;-72
2023/11/19 10:34:24;;;;;;;11.38;5.55;;;;;;;13.15;100.00;99802.28;5994512;23;20034;-73
2023/11/19 10:36:51;;;;;;;9.93;5.88;;;;;;;13.12;98.99;99747.16;6001060;23;20490;-72
2023/11/19 10:39:17;;;;;;;6.28;5.05;;;;;;;13.65;99.00;99829.13;5995077;23;20023;-73
2023/11/19 10:41:44;;;;;;;6.22;5.20;;;;;;;13.64;99.24;99816.91;6016140;23;20033;-72
2023/11/19 10:44:10;;;;;;;5.18;4.82;;;;;;;13.82;96.98;99795.31;6000494;23;20031;-72
2023/11/19 10:46:41;;;;;;;8.07;6.20;;;;;;;13.89;96.50;99785.91;6020483;23;20857;-72
2023/11/19 10:49:09;;;;;;;6.90;5.60;;;;;;;13.37;95.93;99714.50;6014057;23;20041;-73
2023/11/19 10:51:35;;;;;;;9.90;5.60;;;;;;;13.59;93.55;99667.94;5994330;23;20046;-72
2023/11/19 10:54:07;;;;;;;6.97;5.38;;;;;;;13.77;94.31;99735.84;6019785;23;20038;-72
2023/11/19 10:56:34;;;;;;;7.65;7.03;;;;;;;13.54;95.58;99735.06;5994162;23;20442;-72
2023/11/19 10:59:02;;;;;;;9.32;5.38;;;;;;;13.63;92.96;99680.78;6017478;23;20039;-73
2023/11/19 11:01:40;;;;;;;10.40;5.97;;;;;;;13.48;92.48;99656.47;6021870;23;21495;-71
2023/11/19 11:04:14;;;;;;;5.47;4.97;;;;;;;13.13;94.21;99639.06;5995340;23;20097;-71
2023/11/19 11:06:41;;;;;;;9.20;5.70;;;;;;;13.71;93.87;99746.03;6017868;23;20029;-69
2023/11/19 11:09:12;;;;;;;8.52;5.07;;;;;;;13.66;92.54;99721.88;5990579;23;20078;-70
2023/11/19 11:11:40;;;;;;;7.30;5.28;;;;;;;12.95;93.80;99672.13;5989226;23;20089;-70
2023/11/19 11:14:08;;;;;;;5.32;4.78;;;;;;;13.12;96.57;99773.50;6018760;23;20545;-69
2023/11/19 11:16:37;;;;;;;9.85;6.78;;;;;;;12.90;97.08;99740.09;6013407;23;20034;-69
2023/11/19 11:19:04;;;;;;;7.55;5.22;;;;;;;13.23;97.32;99799.00;6020832;23;20046;-70
2023/11/19 11:21:32;;;;;;;5.65;5.25;;;;;;;13.87;95.31;99808.94;6022715;23;20019;-70